sensor_id;sensor_type;location;lat;lon;timestamp;P1;durP1;ratioP1;P2;durP2;ratioP2
16826;SDS011;8530;49.540;8.576;2023-05-07T00:02:04;4.30;;;3.57;;
16826;SDS011;8530;49.540;8.576;2023-05-07T00:04:31;2.90;;;2.70;;
16826;SDS011;8530;49.540;8.576;2023-05-07T00:07:01;3.10;;;2.80;;
16826;SDS011;8530;49.540;8.576;2023-05-07T00:09:29;5.00;;;3.70;;
16826;SDS011;8530;49.540;8.576;2023-05-07T00:11:56;5.03;;;3.80;;
16826;SDS011;8530;49.540;8.576;2023-05-07T00:14:23;3.20;;;2.63;;
16826;SDS011;8530;49.540;8.576;2023-05-07T00:16:49;3.17;;;2.87;;
16826;SDS011;8530;49.540;8.576;2023-05-07T00:19:16;2.90;;;2.60;;
16826;SDS011;8530;49.540;8.576;2023-05-07T00:21:42;3.07;;;2.37;;
16826;SDS011;8530;49.540;8.576;2023-05-07T00:24:09;3.90;;;2.90;;
16826;SDS011;8530;49.540;8.576;2023-05-07T00:26:37;8.60;;;2.93;;
16826;SDS011;8530;49.540;8.576;2023-05-07T00:29:04;2.60;;;2.40;;
16826;SDS011;8530;49.540;8.576;2023-05-07T00:31:30;3.60;;;2.67;;
16826;SDS011;8530;49.540;8.576;2023-05-07T00:33:58;4.10;;;2.80;;
16826;SDS011;8530;49.540;8.576;2023-05-07T00:36:28;2.50;;;2.30;;
16826;SDS011;8530;49.540;8.576;2023-05-07T00:38:56;4.97;;;2.60;;
16826;SDS011;8530;49.540;8.576;2023-05-07T00:41:25;3.37;;;2.80;;
16826;SDS011;8530;49.540;8.576;2023-05-07T00:43:53;2.90;;;2.70;;
16826;SDS011;8530;49.540;8.576;2023-05-07T00:46:20;3.10;;;2.80;;
16826;SDS011;8530;49.540;8.576;2023-05-07T00:48:47;5.37;;;3.20;;
16826;SDS011;8530;49.540;8.576;2023-05-07T00:51:15;3.80;;;3.50;;
16826;SDS011;8530;49.540;8.576;2023-05-07T00:53:44;3.07;;;2.77;;
16826;SDS011;8530;49.540;8.576;2023-05-07T00:56:12;3.20;;;2.90;;
16826;SDS011;8530;49.540;8.576;2023-05-07T00:58:39;3.63;;;3.10;;
16826;SDS011;8530;49.540;8.576;2023-05-07T01:01:07;3.20;;;2.90;;
16826;SDS011;8530;49.540;8.576;2023-05-07T01:03:34;4.10;;;2.83;;
16826;SDS011;8530;49.540;8.576;2023-05-07T01:06:01;3.67;;;3.30;;
16826;SDS011;8530;49.540;8.576;2023-05-07T01:08:29;4.20;;;3.00;;
16826;SDS011;8530;49.540;8.576;2023-05-07T01:10:57;3.10;;;2.90;;
16826;SDS011;8530;49.540;8.576;2023-05-07T01:13:25;4.03;;;3.60;;
16826;SDS011;8530;49.540;8.576;2023-05-07T01:15:52;4.07;;;2.83;;
16826;SDS011;8530;49.540;8.576;2023-05-07T01:18:20;4.03;;;3.00;;
16826;SDS011;8530;49.540;8.576;2023-05-07T01:20:47;4.37;;;3.27;;
16826;SDS011;8530;49.540;8.576;2023-05-07T01:23:15;3.83;;;3.23;;
16826;SDS011;8530;49.540;8.576;2023-05-07T01:25:42;5.80;;;3.40;;
16826;SDS011;8530;49.540;8.576;2023-05-07T01:28:08;4.70;;;3.40;;
16826;SDS011;8530;49.540;8.576;2023-05-07T01:30:36;6.53;;;3.50;;
16826;SDS011;8530;49.540;8.576;2023-05-07T01:33:06;3.10;;;2.80;;
16826;SDS011;8530;49.540;8.576;2023-05-07T01:35:36;4.07;;;3.67;;
16826;SDS011;8530;49.540;8.576;2023-05-07T01:38:05;5.07;;;3.60;;
16826;SDS011;8530;49.540;8.576;2023-05-07T01:40:34;5.63;;;4.20;;
16826;SDS011;8530;49.540;8.576;2023-05-07T01:43:01;5.13;;;3.57;;
16826;SDS011;8530;49.540;8.576;2023-05-07T01:45:28;5.93;;;3.17;;
16826;SDS011;8530;49.540;8.576;2023-05-07T01:47:56;3.50;;;3.10;;
16826;SDS011;8530;49.540;8.576;2023-05-07T01:50:24;3.37;;;3.07;;
16826;SDS011;8530;49.540;8.576;2023-05-07T01:52:52;5.77;;;3.63;;
16826;SDS011;8530;49.540;8.576;2023-05-07T01:55:19;3.90;;;3.50;;
16826;SDS011;8530;49.540;8.576;2023-05-07T01:57:47;4.77;;;3.07;;
16826;SDS011;8530;49.540;8.576;2023-05-07T02:00:14;9.80;;;3.67;;
16826;SDS011;8530;49.540;8.576;2023-05-07T02:02:41;7.23;;;3.40;;
16826;SDS011;8530;49.540;8.576;2023-05-07T02:05:08;6.43;;;3.53;;
16826;SDS011;8530;49.540;8.576;2023-05-07T02:07:35;7.57;;;4.40;;
16826;SDS011;8530;49.540;8.576;2023-05-07T02:10:01;4.07;;;3.67;;
16826;SDS011;8530;49.540;8.576;2023-05-07T02:12:28;3.60;;;3.30;;
16826;SDS011;8530;49.540;8.576;2023-05-07T02:14:57;4.03;;;3.63;;
16826;SDS011;8530;49.540;8.576;2023-05-07T02:17:23;4.87;;;4.00;;
16826;SDS011;8530;49.540;8.576;2023-05-07T02:19:50;3.67;;;3.37;;
16826;SDS011;8530;49.540;8.576;2023-05-07T02:22:17;4.53;;;3.10;;
16826;SDS011;8530;49.540;8.576;2023-05-07T02:24:44;4.97;;;3.43;;
16826;SDS011;8530;49.540;8.576;2023-05-07T02:27:10;4.13;;;3.60;;
16826;SDS011;8530;49.540;8.576;2023-05-07T02:29:37;4.90;;;4.00;;
16826;SDS011;8530;49.540;8.576;2023-05-07T02:32:05;7.50;;;3.90;;
16826;SDS011;8530;49.540;8.576;2023-05-07T02:34:32;4.13;;;3.73;;
16826;SDS011;8530;49.540;8.576;2023-05-07T02:36:59;8.83;;;4.30;;
16826;SDS011;8530;49.540;8.576;2023-05-07T02:39:25;4.20;;;3.87;;
16826;SDS011;8530;49.540;8.576;2023-05-07T02:41:52;6.47;;;3.90;;
16826;SDS011;8530;49.540;8.576;2023-05-07T02:44:19;4.23;;;3.83;;
16826;SDS011;8530;49.540;8.576;2023-05-07T02:46:45;4.37;;;3.97;;
16826;SDS011;8530;49.540;8.576;2023-05-07T02:49:13;4.83;;;4.10;;
16826;SDS011;8530;49.540;8.576;2023-05-07T02:51:40;6.03;;;3.53;;
16826;SDS011;8530;49.540;8.576;2023-05-07T02:54:07;5.13;;;3.60;;
16826;SDS011;8530;49.540;8.576;2023-05-07T02:56:33;6.30;;;3.90;;
16826;SDS011;8530;49.540;8.576;2023-05-07T02:59:00;6.17;;;4.20;;
16826;SDS011;8530;49.540;8.576;2023-05-07T03:01:27;4.00;;;3.70;;
16826;SDS011;8530;49.540;8.576;2023-05-07T03:03:54;4.80;;;3.20;;
16826;SDS011;8530;49.540;8.576;2023-05-07T03:06:22;3.70;;;3.40;;
16826;SDS011;8530;49.540;8.576;2023-05-07T03:08:49;4.00;;;3.70;;
16826;SDS011;8530;49.540;8.576;2023-05-07T03:11:16;8.70;;;4.67;;
16826;SDS011;8530;49.540;8.576;2023-05-07T03:13:42;5.40;;;3.90;;
16826;SDS011;8530;49.540;8.576;2023-05-07T03:16:09;4.33;;;3.93;;
16826;SDS011;8530;49.540;8.576;2023-05-07T03:18:36;12.33;;;3.63;;
16826;SDS011;8530;49.540;8.576;2023-05-07T03:21:02;4.83;;;4.10;;
16826;SDS011;8530;49.540;8.576;2023-05-07T03:23:30;4.23;;;3.90;;
16826;SDS011;8530;49.540;8.576;2023-05-07T03:25:57;4.60;;;3.77;;
16826;SDS011;8530;49.540;8.576;2023-05-07T03:28:24;6.93;;;4.30;;
16826;SDS011;8530;49.540;8.576;2023-05-07T03:30:50;7.40;;;4.80;;
16826;SDS011;8530;49.540;8.576;2023-05-07T03:33:17;7.90;;;4.73;;
16826;SDS011;8530;49.540;8.576;2023-05-07T03:35:43;4.80;;;4.03;;
16826;SDS011;8530;49.540;8.576;2023-05-07T03:38:10;8.20;;;5.00;;
16826;SDS011;8530;49.540;8.576;2023-05-07T03:40:38;6.73;;;4.77;;
16826;SDS011;8530;49.540;8.576;2023-05-07T03:43:05;4.50;;;3.60;;
16826;SDS011;8530;49.540;8.576;2023-05-07T03:45:32;4.03;;;3.70;;
16826;SDS011;8530;49.540;8.576;2023-05-07T03:47:58;4.57;;;3.83;;
16826;SDS011;8530;49.540;8.576;2023-05-07T03:50:25;6.27;;;3.50;;
16826;SDS011;8530;49.540;8.576;2023-05-07T03:52:52;5.20;;;4.20;;
16826;SDS011;8530;49.540;8.576;2023-05-07T03:55:18;7.20;;;3.97;;
16826;SDS011;8530;49.540;8.576;2023-05-07T03:57:47;4.27;;;3.87;;
16826;SDS011;8530;49.540;8.576;2023-05-07T04:00:13;6.03;;;4.50;;
16826;SDS011;8530;49.540;8.576;2023-05-07T04:02:40;6.23;;;4.43;;
16826;SDS011;8530;49.540;8.576;2023-05-07T04:05:07;5.00;;;4.50;;
16826;SDS011;8530;49.540;8.576;2023-05-07T04:07:34;5.20;;;4.33;;
16826;SDS011;8530;49.540;8.576;2023-05-07T04:10:01;5.73;;;4.07;;
16826;SDS011;8530;49.540;8.576;2023-05-07T04:12:28;6.87;;;5.37;;
16826;SDS011;8530;49.540;8.576;2023-05-07T04:14:56;5.57;;;4.37;;
16826;SDS011;8530;49.540;8.576;2023-05-07T04:17:22;3.67;;;3.37;;
16826;SDS011;8530;49.540;8.576;2023-05-07T04:19:49;10.50;;;4.37;;
16826;SDS011;8530;49.540;8.576;2023-05-07T04:22:16;4.40;;;4.00;;
16826;SDS011;8530;49.540;8.576;2023-05-07T04:24:42;6.93;;;4.23;;
16826;SDS011;8530;49.540;8.576;2023-05-07T04:27:09;8.57;;;4.80;;
16826;SDS011;8530;49.540;8.576;2023-05-07T04:29:36;3.87;;;3.50;;
16826;SDS011;8530;49.540;8.576;2023-05-07T04:32:08;5.60;;;4.50;;
16826;SDS011;8530;49.540;8.576;2023-05-07T04:34:35;4.40;;;3.80;;
16826;SDS011;8530;49.540;8.576;2023-05-07T04:37:02;4.87;;;3.87;;
16826;SDS011;8530;49.540;8.576;2023-05-07T04:39:28;4.30;;;3.90;;
16826;SDS011;8530;49.540;8.576;2023-05-07T04:41:55;4.73;;;3.40;;
16826;SDS011;8530;49.540;8.576;2023-05-07T04:44:22;8.10;;;4.80;;
16826;SDS011;8530;49.540;8.576;2023-05-07T04:46:49;6.10;;;4.63;;
16826;SDS011;8530;49.540;8.576;2023-05-07T04:49:17;4.53;;;4.00;;
16826;SDS011;8530;49.540;8.576;2023-05-07T04:51:44;4.83;;;4.17;;
16826;SDS011;8530;49.540;8.576;2023-05-07T04:54:11;6.20;;;5.20;;
16826;SDS011;8530;49.540;8.576;2023-05-07T04:56:37;5.07;;;4.03;;
16826;SDS011;8530;49.540;8.576;2023-05-07T04:59:04;6.63;;;4.53;;
16826;SDS011;8530;49.540;8.576;2023-05-07T05:01:31;4.80;;;4.40;;
16826;SDS011;8530;49.540;8.576;2023-05-07T05:03:58;4.37;;;3.97;;
16826;SDS011;8530;49.540;8.576;2023-05-07T05:06:27;4.07;;;3.67;;
16826;SDS011;8530;49.540;8.576;2023-05-07T05:08:54;4.63;;;3.67;;
16826;SDS011;8530;49.540;8.576;2023-05-07T05:11:21;4.07;;;3.70;;
16826;SDS011;8530;49.540;8.576;2023-05-07T05:13:48;6.50;;;3.87;;
16826;SDS011;8530;49.540;8.576;2023-05-07T05:16:14;5.63;;;3.90;;
16826;SDS011;8530;49.540;8.576;2023-05-07T05:18:41;4.90;;;4.50;;
16826;SDS011;8530;49.540;8.576;2023-05-07T05:21:08;4.40;;;3.93;;
16826;SDS011;8530;49.540;8.576;2023-05-07T05:23:36;6.03;;;3.60;;
16826;SDS011;8530;49.540;8.576;2023-05-07T05:26:03;4.50;;;3.57;;
16826;SDS011;8530;49.540;8.576;2023-05-07T05:28:29;4.40;;;3.77;;
16826;SDS011;8530;49.540;8.576;2023-05-07T05:30:56;4.03;;;3.33;;
16826;SDS011;8530;49.540;8.576;2023-05-07T05:33:23;4.73;;;3.27;;
16826;SDS011;8530;49.540;8.576;2023-05-07T05:35:49;4.03;;;3.63;;
16826;SDS011;8530;49.540;8.576;2023-05-07T05:38:16;8.20;;;3.40;;
16826;SDS011;8530;49.540;8.576;2023-05-07T05:40:44;4.97;;;4.13;;
16826;SDS011;8530;49.540;8.576;2023-05-07T05:43:11;6.53;;;4.93;;
16826;SDS011;8530;49.540;8.576;2023-05-07T05:45:38;4.27;;;3.63;;
16826;SDS011;8530;49.540;8.576;2023-05-07T05:48:05;4.00;;;3.10;;
16826;SDS011;8530;49.540;8.576;2023-05-07T05:50:33;4.50;;;3.23;;
16826;SDS011;8530;49.540;8.576;2023-05-07T05:53:00;3.73;;;3.23;;
16826;SDS011;8530;49.540;8.576;2023-05-07T05:55:27;3.90;;;3.50;;
16826;SDS011;8530;49.540;8.576;2023-05-07T05:57:55;3.00;;;2.70;;
16826;SDS011;8530;49.540;8.576;2023-05-07T06:00:22;6.73;;;3.50;;
16826;SDS011;8530;49.540;8.576;2023-05-07T06:02:49;4.63;;;3.13;;
16826;SDS011;8530;49.540;8.576;2023-05-07T06:05:16;3.37;;;3.00;;
16826;SDS011;8530;49.540;8.576;2023-05-07T06:07:43;3.27;;;2.97;;
16826;SDS011;8530;49.540;8.576;2023-05-07T06:10:09;4.10;;;3.27;;
16826;SDS011;8530;49.540;8.576;2023-05-07T06:12:36;6.23;;;3.50;;
16826;SDS011;8530;49.540;8.576;2023-05-07T06:15:05;3.50;;;2.97;;
16826;SDS011;8530;49.540;8.576;2023-05-07T06:17:32;9.43;;;3.50;;
16826;SDS011;8530;49.540;8.576;2023-05-07T06:19:59;3.70;;;3.00;;
16826;SDS011;8530;49.540;8.576;2023-05-07T06:22:26;2.73;;;2.50;;
16826;SDS011;8530;49.540;8.576;2023-05-07T06:24:53;5.63;;;2.97;;
16826;SDS011;8530;49.540;8.576;2023-05-07T06:27:19;5.93;;;3.50;;
16826;SDS011;8530;49.540;8.576;2023-05-07T06:29:47;3.57;;;2.90;;
16826;SDS011;8530;49.540;8.576;2023-05-07T06:32:15;5.37;;;3.00;;
16826;SDS011;8530;49.540;8.576;2023-05-07T06:34:42;4.07;;;3.00;;
16826;SDS011;8530;49.540;8.576;2023-05-07T06:37:09;5.97;;;2.80;;
16826;SDS011;8530;49.540;8.576;2023-05-07T06:39:36;3.67;;;2.67;;
16826;SDS011;8530;49.540;8.576;2023-05-07T06:42:03;4.03;;;3.63;;
16826;SDS011;8530;49.540;8.576;2023-05-07T06:44:30;2.80;;;2.30;;
16826;SDS011;8530;49.540;8.576;2023-05-07T06:46:56;3.73;;;2.53;;
16826;SDS011;8530;49.540;8.576;2023-05-07T06:49:24;3.00;;;2.57;;
16826;SDS011;8530;49.540;8.576;2023-05-07T06:51:51;3.03;;;2.10;;
16826;SDS011;8530;49.540;8.576;2023-05-07T06:54:18;9.90;;;2.47;;
16826;SDS011;8530;49.540;8.576;2023-05-07T06:56:45;3.47;;;2.23;;
16826;SDS011;8530;49.540;8.576;2023-05-07T06:59:12;2.73;;;2.07;;
16826;SDS011;8530;49.540;8.576;2023-05-07T07:01:38;4.90;;;2.43;;
16826;SDS011;8530;49.540;8.576;2023-05-07T07:04:05;5.00;;;2.10;;
16826;SDS011;8530;49.540;8.576;2023-05-07T07:06:33;6.50;;;1.93;;
16826;SDS011;8530;49.540;8.576;2023-05-07T07:09:00;2.70;;;1.93;;
16826;SDS011;8530;49.540;8.576;2023-05-07T07:11:26;2.40;;;2.10;;
16826;SDS011;8530;49.540;8.576;2023-05-07T07:13:53;3.87;;;1.83;;
16826;SDS011;8530;49.540;8.576;2023-05-07T07:16:20;5.70;;;3.60;;
16826;SDS011;8530;49.540;8.576;2023-05-07T07:18:47;2.63;;;1.60;;
16826;SDS011;8530;49.540;8.576;2023-05-07T07:21:13;2.43;;;1.50;;
16826;SDS011;8530;49.540;8.576;2023-05-07T07:23:42;3.70;;;1.80;;
16826;SDS011;8530;49.540;8.576;2023-05-07T07:26:08;3.20;;;2.43;;
16826;SDS011;8530;49.540;8.576;2023-05-07T07:28:36;4.30;;;1.80;;
16826;SDS011;8530;49.540;8.576;2023-05-07T07:31:08;2.70;;;2.13;;
16826;SDS011;8530;49.540;8.576;2023-05-07T07:33:35;5.50;;;1.90;;
16826;SDS011;8530;49.540;8.576;2023-05-07T07:36:04;3.20;;;2.00;;
16826;SDS011;8530;49.540;8.576;2023-05-07T07:38:32;3.50;;;2.30;;
16826;SDS011;8530;49.540;8.576;2023-05-07T07:41:00;4.60;;;2.30;;
16826;SDS011;8530;49.540;8.576;2023-05-07T07:43:28;3.57;;;2.60;;
16826;SDS011;8530;49.540;8.576;2023-05-07T07:45:54;2.60;;;1.70;;
16826;SDS011;8530;49.540;8.576;2023-05-07T07:48:21;4.07;;;2.27;;
16826;SDS011;8530;49.540;8.576;2023-05-07T07:50:48;2.73;;;1.97;;
16826;SDS011;8530;49.540;8.576;2023-05-07T07:53:16;3.33;;;2.10;;
16826;SDS011;8530;49.540;8.576;2023-05-07T07:55:43;2.10;;;1.90;;
16826;SDS011;8530;49.540;8.576;2023-05-07T07:58:11;4.60;;;2.23;;
16826;SDS011;8530;49.540;8.576;2023-05-07T08:00:38;2.20;;;1.83;;
16826;SDS011;8530;49.540;8.576;2023-05-07T08:03:04;4.10;;;2.00;;
16826;SDS011;8530;49.540;8.576;2023-05-07T08:05:32;4.37;;;2.10;;
16826;SDS011;8530;49.540;8.576;2023-05-07T08:07:59;2.20;;;2.00;;
16826;SDS011;8530;49.540;8.576;2023-05-07T08:10:26;3.40;;;2.20;;
16826;SDS011;8530;49.540;8.576;2023-05-07T08:12:53;2.77;;;2.20;;
16826;SDS011;8530;49.540;8.576;2023-05-07T08:15:21;2.50;;;2.20;;
16826;SDS011;8530;49.540;8.576;2023-05-07T08:17:48;4.60;;;2.77;;
16826;SDS011;8530;49.540;8.576;2023-05-07T08:20:14;3.50;;;2.37;;
16826;SDS011;8530;49.540;8.576;2023-05-07T08:22:41;3.23;;;2.07;;
16826;SDS011;8530;49.540;8.576;2023-05-07T08:25:08;6.50;;;2.53;;
16826;SDS011;8530;49.540;8.576;2023-05-07T08:27:35;3.03;;;2.13;;
16826;SDS011;8530;49.540;8.576;2023-05-07T08:30:02;6.13;;;2.10;;
16826;SDS011;8530;49.540;8.576;2023-05-07T08:32:31;2.70;;;2.17;;
16826;SDS011;8530;49.540;8.576;2023-05-07T08:34:58;8.00;;;2.90;;
16826;SDS011;8530;49.540;8.576;2023-05-07T08:37:26;4.43;;;2.53;;
16826;SDS011;8530;49.540;8.576;2023-05-07T08:39:53;3.43;;;2.50;;
16826;SDS011;8530;49.540;8.576;2023-05-07T08:42:20;4.20;;;1.53;;
16826;SDS011;8530;49.540;8.576;2023-05-07T08:44:49;2.43;;;1.90;;
16826;SDS011;8530;49.540;8.576;2023-05-07T08:47:19;6.87;;;2.53;;
16826;SDS011;8530;49.540;8.576;2023-05-07T08:49:49;3.00;;;1.90;;
16826;SDS011;8530;49.540;8.576;2023-05-07T08:52:16;2.60;;;2.40;;
16826;SDS011;8530;49.540;8.576;2023-05-07T08:54:45;2.67;;;2.10;;
16826;SDS011;8530;49.540;8.576;2023-05-07T08:57:13;4.93;;;2.30;;
16826;SDS011;8530;49.540;8.576;2023-05-07T08:59:41;3.47;;;2.20;;
16826;SDS011;8530;49.540;8.576;2023-05-07T09:02:08;4.50;;;2.10;;
16826;SDS011;8530;49.540;8.576;2023-05-07T09:04:36;5.27;;;2.50;;
16826;SDS011;8530;49.540;8.576;2023-05-07T09:07:04;4.67;;;2.50;;
16826;SDS011;8530;49.540;8.576;2023-05-07T09:09:31;6.93;;;3.10;;
16826;SDS011;8530;49.540;8.576;2023-05-07T09:11:58;2.37;;;1.83;;
16826;SDS011;8530;49.540;8.576;2023-05-07T09:14:25;4.33;;;2.20;;
16826;SDS011;8530;49.540;8.576;2023-05-07T09:16:52;3.60;;;2.20;;
16826;SDS011;8530;49.540;8.576;2023-05-07T09:19:21;2.50;;;2.30;;
16826;SDS011;8530;49.540;8.576;2023-05-07T09:21:49;4.73;;;2.60;;
16826;SDS011;8530;49.540;8.576;2023-05-07T09:24:17;2.20;;;2.00;;
16826;SDS011;8530;49.540;8.576;2023-05-07T09:26:44;3.03;;;2.23;;
16826;SDS011;8530;49.540;8.576;2023-05-07T09:29:10;7.60;;;3.60;;
16826;SDS011;8530;49.540;8.576;2023-05-07T09:31:37;3.40;;;2.47;;
16826;SDS011;8530;49.540;8.576;2023-05-07T09:34:04;2.23;;;1.47;;
16826;SDS011;8530;49.540;8.576;2023-05-07T09:36:31;3.70;;;2.27;;
16826;SDS011;8530;49.540;8.576;2023-05-07T09:38:59;2.03;;;1.83;;
16826;SDS011;8530;49.540;8.576;2023-05-07T09:41:27;3.37;;;2.00;;
16826;SDS011;8530;49.540;8.576;2023-05-07T09:43:57;2.53;;;1.67;;
16826;SDS011;8530;49.540;8.576;2023-05-07T09:46:25;2.30;;;1.90;;
16826;SDS011;8530;49.540;8.576;2023-05-07T09:48:56;2.93;;;2.00;;
16826;SDS011;8530;49.540;8.576;2023-05-07T09:51:24;3.20;;;2.07;;
16826;SDS011;8530;49.540;8.576;2023-05-07T09:53:56;2.63;;;1.90;;
16826;SDS011;8530;49.540;8.576;2023-05-07T09:56:26;2.33;;;1.83;;
16826;SDS011;8530;49.540;8.576;2023-05-07T09:58:55;2.20;;;1.93;;
16826;SDS011;8530;49.540;8.576;2023-05-07T10:01:23;2.60;;;1.70;;
16826;SDS011;8530;49.540;8.576;2023-05-07T10:03:51;4.03;;;2.30;;
16826;SDS011;8530;49.540;8.576;2023-05-07T10:06:19;3.63;;;2.17;;
16826;SDS011;8530;49.540;8.576;2023-05-07T10:08:46;3.93;;;2.50;;
16826;SDS011;8530;49.540;8.576;2023-05-07T10:11:15;2.53;;;2.10;;
16826;SDS011;8530;49.540;8.576;2023-05-07T10:13:44;2.57;;;2.03;;
16826;SDS011;8530;49.540;8.576;2023-05-07T10:16:13;4.93;;;2.13;;
16826;SDS011;8530;49.540;8.576;2023-05-07T10:18:40;4.80;;;1.90;;
16826;SDS011;8530;49.540;8.576;2023-05-07T10:21:11;3.23;;;1.90;;
16826;SDS011;8530;49.540;8.576;2023-05-07T10:23:40;3.27;;;2.10;;
16826;SDS011;8530;49.540;8.576;2023-05-07T10:26:10;3.60;;;2.30;;
16826;SDS011;8530;49.540;8.576;2023-05-07T10:28:39;3.47;;;2.30;;
16826;SDS011;8530;49.540;8.576;2023-05-07T10:31:23;2.70;;;1.90;;
16826;SDS011;8530;49.540;8.576;2023-05-07T10:34:07;3.60;;;2.13;;
16826;SDS011;8530;49.540;8.576;2023-05-07T10:36:35;2.40;;;2.20;;
16826;SDS011;8530;49.540;8.576;2023-05-07T10:39:04;3.07;;;2.00;;
16826;SDS011;8530;49.540;8.576;2023-05-07T10:41:32;4.33;;;2.07;;
16826;SDS011;8530;49.540;8.576;2023-05-07T10:43:59;2.97;;;1.93;;
16826;SDS011;8530;49.540;8.576;2023-05-07T10:46:28;3.00;;;2.00;;
16826;SDS011;8530;49.540;8.576;2023-05-07T10:49:08;2.27;;;1.83;;
16826;SDS011;8530;49.540;8.576;2023-05-07T10:51:37;3.43;;;1.90;;
16826;SDS011;8530;49.540;8.576;2023-05-07T10:54:21;5.10;;;2.90;;
16826;SDS011;8530;49.540;8.576;2023-05-07T10:56:49;2.00;;;1.77;;
16826;SDS011;8530;49.540;8.576;2023-05-07T11:02:11;3.60;;;2.20;;
16826;SDS011;8530;49.540;8.576;2023-05-07T11:04:40;2.40;;;1.93;;
16826;SDS011;8530;49.540;8.576;2023-05-07T11:07:25;3.03;;;1.93;;
16826;SDS011;8530;49.540;8.576;2023-05-07T11:09:54;3.23;;;2.20;;
16826;SDS011;8530;49.540;8.576;2023-05-07T11:18:17;4.00;;;2.00;;
16826;SDS011;8530;49.540;8.576;2023-05-07T11:20:45;3.23;;;1.90;;
16826;SDS011;8530;49.540;8.576;2023-05-07T11:26:41;2.27;;;2.07;;
16826;SDS011;8530;49.540;8.576;2023-05-07T11:29:13;2.37;;;1.50;;
16826;SDS011;8530;49.540;8.576;2023-05-07T11:31:43;2.93;;;2.10;;
16826;SDS011;8530;49.540;8.576;2023-05-07T11:34:12;3.73;;;1.83;;
16826;SDS011;8530;49.540;8.576;2023-05-07T11:36:41;2.23;;;1.73;;
16826;SDS011;8530;49.540;8.576;2023-05-07T11:39:25;2.80;;;2.13;;
16826;SDS011;8530;49.540;8.576;2023-05-07T11:41:53;2.13;;;1.70;;
16826;SDS011;8530;49.540;8.576;2023-05-07T11:44:20;4.40;;;2.07;;
16826;SDS011;8530;49.540;8.576;2023-05-07T11:46:46;3.10;;;1.87;;
16826;SDS011;8530;49.540;8.576;2023-05-07T11:49:15;3.80;;;1.80;;
16826;SDS011;8530;49.540;8.576;2023-05-07T11:51:42;2.40;;;1.90;;
16826;SDS011;8530;49.540;8.576;2023-05-07T11:54:11;2.97;;;1.60;;
16826;SDS011;8530;49.540;8.576;2023-05-07T11:56:41;3.43;;;1.60;;
16826;SDS011;8530;49.540;8.576;2023-05-07T11:59:07;3.20;;;2.03;;
16826;SDS011;8530;49.540;8.576;2023-05-07T12:01:35;7.77;;;2.53;;
16826;SDS011;8530;49.540;8.576;2023-05-07T12:04:02;1.70;;;1.60;;
16826;SDS011;8530;49.540;8.576;2023-05-07T12:06:31;6.43;;;1.80;;
16826;SDS011;8530;49.540;8.576;2023-05-07T12:09:03;1.90;;;1.20;;
16826;SDS011;8530;49.540;8.576;2023-05-07T12:11:32;4.23;;;2.17;;
16826;SDS011;8530;49.540;8.576;2023-05-07T12:13:58;2.20;;;2.00;;
16826;SDS011;8530;49.540;8.576;2023-05-07T12:16:25;4.53;;;1.50;;
16826;SDS011;8530;49.540;8.576;2023-05-07T12:18:53;1.80;;;1.60;;
16826;SDS011;8530;49.540;8.576;2023-05-07T12:21:20;1.87;;;1.40;;
16826;SDS011;8530;49.540;8.576;2023-05-07T12:23:49;2.03;;;1.67;;
16826;SDS011;8530;49.540;8.576;2023-05-07T12:26:16;3.40;;;1.70;;
16826;SDS011;8530;49.540;8.576;2023-05-07T12:28:42;2.37;;;1.67;;
16826;SDS011;8530;49.540;8.576;2023-05-07T12:31:09;1.90;;;1.70;;
16826;SDS011;8530;49.540;8.576;2023-05-07T12:33:36;3.63;;;1.60;;
16826;SDS011;8530;49.540;8.576;2023-05-07T12:36:04;3.27;;;1.57;;
16826;SDS011;8530;49.540;8.576;2023-05-07T12:38:36;2.60;;;1.70;;
16826;SDS011;8530;49.540;8.576;2023-05-07T12:41:05;2.03;;;1.57;;
16826;SDS011;8530;49.540;8.576;2023-05-07T12:43:32;2.57;;;1.40;;
16826;SDS011;8530;49.540;8.576;2023-05-07T12:46:00;2.20;;;1.60;;
16826;SDS011;8530;49.540;8.576;2023-05-07T12:48:28;2.70;;;1.47;;
16826;SDS011;8530;49.540;8.576;2023-05-07T12:50:55;2.00;;;1.30;;
16826;SDS011;8530;49.540;8.576;2023-05-07T12:53:23;5.83;;;1.80;;
16826;SDS011;8530;49.540;8.576;2023-05-07T12:55:51;5.27;;;3.10;;
16826;SDS011;8530;49.540;8.576;2023-05-07T12:58:21;2.50;;;1.63;;
16826;SDS011;8530;49.540;8.576;2023-05-07T13:00:51;5.27;;;2.00;;
16826;SDS011;8530;49.540;8.576;2023-05-07T13:03:21;4.60;;;2.13;;
16826;SDS011;8530;49.540;8.576;2023-05-07T13:05:55;3.90;;;1.73;;
16826;SDS011;8530;49.540;8.576;2023-05-07T13:08:27;1.97;;;1.27;;
16826;SDS011;8530;49.540;8.576;2023-05-07T13:10:55;2.87;;;1.67;;
16826;SDS011;8530;49.540;8.576;2023-05-07T13:13:24;1.70;;;1.40;;
16826;SDS011;8530;49.540;8.576;2023-05-07T13:15:51;3.93;;;1.70;;
16826;SDS011;8530;49.540;8.576;2023-05-07T13:18:18;2.10;;;1.90;;
16826;SDS011;8530;49.540;8.576;2023-05-07T13:20:44;5.47;;;1.63;;
16826;SDS011;8530;49.540;8.576;2023-05-07T13:23:11;4.93;;;3.63;;
16826;SDS011;8530;49.540;8.576;2023-05-07T13:25:38;2.40;;;1.73;;
16826;SDS011;8530;49.540;8.576;2023-05-07T13:28:05;2.37;;;1.80;;
16826;SDS011;8530;49.540;8.576;2023-05-07T13:30:33;3.00;;;1.53;;
16826;SDS011;8530;49.540;8.576;2023-05-07T13:32:59;2.00;;;1.50;;
16826;SDS011;8530;49.540;8.576;2023-05-07T13:35:26;2.67;;;1.57;;
16826;SDS011;8530;49.540;8.576;2023-05-07T13:37:53;2.00;;;1.20;;
16826;SDS011;8530;49.540;8.576;2023-05-07T13:40:20;3.87;;;1.97;;
16826;SDS011;8530;49.540;8.576;2023-05-07T13:42:47;2.43;;;1.83;;
16826;SDS011;8530;49.540;8.576;2023-05-07T13:45:15;2.00;;;1.63;;
16826;SDS011;8530;49.540;8.576;2023-05-07T13:47:43;4.53;;;2.10;;
16826;SDS011;8530;49.540;8.576;2023-05-07T13:50:14;2.33;;;1.70;;
16826;SDS011;8530;49.540;8.576;2023-05-07T13:52:41;1.83;;;1.40;;
16826;SDS011;8530;49.540;8.576;2023-05-07T13:55:11;2.50;;;1.70;;
16826;SDS011;8530;49.540;8.576;2023-05-07T13:57:45;5.80;;;1.90;;
16826;SDS011;8530;49.540;8.576;2023-05-07T14:00:13;2.80;;;1.60;;
16826;SDS011;8530;49.540;8.576;2023-05-07T14:02:44;3.27;;;1.63;;
16826;SDS011;8530;49.540;8.576;2023-05-07T14:05:11;3.07;;;1.60;;
16826;SDS011;8530;49.540;8.576;2023-05-07T14:07:39;2.30;;;1.90;;
16826;SDS011;8530;49.540;8.576;2023-05-07T14:10:06;3.33;;;1.70;;
16826;SDS011;8530;49.540;8.576;2023-05-07T14:12:34;3.97;;;2.53;;
16826;SDS011;8530;49.540;8.576;2023-05-07T14:15:01;2.80;;;2.00;;
16826;SDS011;8530;49.540;8.576;2023-05-07T14:17:28;11.37;;;2.97;;
16826;SDS011;8530;49.540;8.576;2023-05-07T14:19:57;4.30;;;2.37;;
16826;SDS011;8530;49.540;8.576;2023-05-07T14:22:23;3.50;;;3.17;;
16826;SDS011;8530;49.540;8.576;2023-05-07T14:24:50;8.87;;;3.90;;
16826;SDS011;8530;49.540;8.576;2023-05-07T14:27:17;12.57;;;4.17;;
16826;SDS011;8530;49.540;8.576;2023-05-07T14:29:44;10.60;;;5.03;;
16826;SDS011;8530;49.540;8.576;2023-05-07T14:32:15;9.10;;;3.20;;
16826;SDS011;8530;49.540;8.576;2023-05-07T14:34:44;4.10;;;2.43;;
16826;SDS011;8530;49.540;8.576;2023-05-07T14:37:15;3.80;;;2.63;;
16826;SDS011;8530;49.540;8.576;2023-05-07T14:39:43;17.30;;;5.30;;
16826;SDS011;8530;49.540;8.576;2023-05-07T14:42:10;11.00;;;5.30;;
16826;SDS011;8530;49.540;8.576;2023-05-07T14:44:40;7.87;;;3.07;;
16826;SDS011;8530;49.540;8.576;2023-05-07T14:47:07;4.53;;;3.17;;
16826;SDS011;8530;49.540;8.576;2023-05-07T14:49:34;6.27;;;2.53;;
16826;SDS011;8530;49.540;8.576;2023-05-07T14:52:00;4.63;;;2.63;;
16826;SDS011;8530;49.540;8.576;2023-05-07T14:54:28;6.60;;;4.60;;
16826;SDS011;8530;49.540;8.576;2023-05-07T14:56:55;6.50;;;3.83;;
16826;SDS011;8530;49.540;8.576;2023-05-07T14:59:22;8.20;;;3.60;;
16826;SDS011;8530;49.540;8.576;2023-05-07T15:01:50;7.40;;;4.07;;
16826;SDS011;8530;49.540;8.576;2023-05-07T15:04:17;5.70;;;3.77;;
16826;SDS011;8530;49.540;8.576;2023-05-07T15:06:46;5.80;;;3.40;;
16826;SDS011;8530;49.540;8.576;2023-05-07T15:19:28;6.70;;;4.50;;
16826;SDS011;8530;49.540;8.576;2023-05-07T15:21:56;13.70;;;5.97;;
16826;SDS011;8530;49.540;8.576;2023-05-07T15:24:24;6.27;;;4.50;;
16826;SDS011;8530;49.540;8.576;2023-05-07T15:26:51;8.00;;;5.60;;